sensor_id;sensor_type;location;lat;lon;timestamp;pressure;altitude;pressure_sealevel;temperature;humidity
21644;BME280;10983;51.982;9.226;2023-05-02T00:01:46;99913.81;;;11.26;100.00
21644;BME280;10983;51.982;9.226;2023-05-02T00:04:14;99903.53;;;11.18;100.00
21644;BME280;10983;51.982;9.226;2023-05-02T00:06:42;99915.03;;;11.19;100.00
21644;BME280;10983;51.982;9.226;2023-05-02T00:09:11;99907.34;;;11.22;100.00
21644;BME280;10983;51.982;9.226;2023-05-02T00:11:40;99907.16;;;11.13;100.00
21644;BME280;10983;51.982;9.226;2023-05-02T00:14:08;99911.66;;;11.12;100.00
21644;BME280;10983;51.982;9.226;2023-05-02T00:16:36;99917.94;;;11.06;100.00
21644;BME280;10983;51.982;9.226;2023-05-02T00:19:03;99919.44;;;11.14;100.00
21644;BME280;10983;51.982;9.226;2023-05-02T00:21:30;99925.81;;;11.13;100.00
21644;BME280;10983;51.982;9.226;2023-05-02T00:23:58;99926.72;;;11.07;100.00
21644;BME280;10983;51.982;9.226;2023-05-02T00:26:26;99932.41;;;11.10;100.00
21644;BME280;10983;51.982;9.226;2023-05-02T00:28:56;99934.25;;;11.10;100.00
21644;BME280;10983;51.982;9.226;2023-05-02T00:31:24;99930.63;;;11.16;100.00
21644;BME280;10983;51.982;9.226;2023-05-02T00:33:51;99932.06;;;11.34;100.00
21644;BME280;10983;51.982;9.226;2023-05-02T00:36:19;99932.06;;;11.34;100.00
21644;BME280;10983;51.982;9.226;2023-05-02T00:38:46;99929.09;;;11.31;100.00
21644;BME280;10983;51.982;9.226;2023-05-02T00:41:15;99929.63;;;11.33;100.00
21644;BME280;10983;51.982;9.226;2023-05-02T00:43:43;99930.53;;;11.38;100.00
21644;BME280;10983;51.982;9.226;2023-05-02T00:46:13;99921.91;;;11.31;100.00
21644;BME280;10983;51.982;9.226;2023-05-02T00:48:40;99919.78;;;11.33;100.00
21644;BME280;10983;51.982;9.226;2023-05-02T00:51:09;99925.56;;;11.42;100.00
21644;BME280;10983;51.982;9.226;2023-05-02T00:53:38;99923.34;;;11.50;100.00
21644;BME280;10983;51.982;9.226;2023-05-02T00:56:06;99927.91;;;11.55;100.00
21644;BME280;10983;51.982;9.226;2023-05-02T00:58:35;99913.63;;;11.44;100.00
21644;BME280;10983;51.982;9.226;2023-05-02T01:01:10;99911.91;;;11.38;100.00
21644;BME280;10983;51.982;9.226;2023-05-02T01:03:54;99910.25;;;11.49;100.00
21644;BME280;10983;51.982;9.226;2023-05-02T01:06:27;99907.81;;;11.47;100.00
21644;BME280;10983;51.982;9.226;2023-05-02T01:09:02;99901.28;;;11.55;100.00
21644;BME280;10983;51.982;9.226;2023-05-02T01:11:35;99905.81;;;11.54;100.00
21644;BME280;10983;51.982;9.226;2023-05-02T01:14:07;99898.34;;;11.40;100.00
21644;BME280;10983;51.982;9.226;2023-05-02T01:16:38;99900.69;;;11.36;100.00
21644;BME280;10983;51.982;9.226;2023-05-02T01:19:17;99908.69;;;11.36;100.00
21644;BME280;10983;51.982;9.226;2023-05-02T01:22:02;99898.59;;;11.38;100.00
21644;BME280;10983;51.982;9.226;2023-05-02T01:24:41;99896.41;;;11.35;100.00
21644;BME280;10983;51.982;9.226;2023-05-02T01:27:18;99905.63;;;11.44;100.00
21644;BME280;10983;51.982;9.226;2023-05-02T01:29:52;99891.09;;;11.35;100.00
21644;BME280;10983;51.982;9.226;2023-05-02T01:32:22;99911.28;;;11.48;100.00
21644;BME280;10983;51.982;9.226;2023-05-02T01:34:52;99909.09;;;11.45;100.00
21644;BME280;10983;51.982;9.226;2023-05-02T01:37:29;99913.63;;;11.44;100.00
21644;BME280;10983;51.982;9.226;2023-05-02T01:40:02;99897.06;;;11.42;100.00
21644;BME280;10983;51.982;9.226;2023-05-02T01:42:35;99899.69;;;11.54;100.00
21644;BME280;10983;51.982;9.226;2023-05-02T01:45:06;99890.34;;;11.51;100.00
21644;BME280;10983;51.982;9.226;2023-05-02T01:47:38;99908.25;;;11.56;100.00
21644;BME280;10983;51.982;9.226;2023-05-02T01:50:08;99898.09;;;11.53;100.00
21644;BME280;10983;51.982;9.226;2023-05-02T01:52:38;99903.91;;;11.50;100.00
21644;BME280;10983;51.982;9.226;2023-05-02T01:55:11;99897.59;;;11.56;100.00
21644;BME280;10983;51.982;9.226;2023-05-02T01:57:41;99908.50;;;11.54;100.00
21644;BME280;10983;51.982;9.226;2023-05-02T02:00:12;99904.69;;;11.50;100.00
21644;BME280;10983;51.982;9.226;2023-05-02T02:02:45;99902.72;;;11.46;100.00
21644;BME280;10983;51.982;9.226;2023-05-02T02:05:15;99835.13;;;11.03;100.00
21644;BME280;10983;51.982;9.226;2023-05-02T02:07:45;99891.09;;;11.35;100.00
21644;BME280;10983;51.982;9.226;2023-05-02T02:10:14;99899.16;;;11.40;100.00
21644;BME280;10983;51.982;9.226;2023-05-02T02:12:46;99900.75;;;11.41;100.00
21644;BME280;10983;51.982;9.226;2023-05-02T02:15:18;99902.13;;;11.44;100.00
21644;BME280;10983;51.982;9.226;2023-05-02T02:17:49;99901.84;;;11.40;100.00
21644;BME280;10983;51.982;9.226;2023-05-02T02:20:24;99903.13;;;11.38;100.00
21644;BME280;10983;51.982;9.226;2023-05-02T02:22:59;99898.44;;;11.28;100.00
21644;BME280;10983;51.982;9.226;2023-05-02T02:25:28;99913.41;;;11.34;100.00
21644;BME280;10983;51.982;9.226;2023-05-02T02:27:56;99910.28;;;11.37;100.00
21644;BME280;10983;51.982;9.226;2023-05-02T02:30:28;99916.44;;;11.38;100.00
21644;BME280;10983;51.982;9.226;2023-05-02T02:32:55;99907.41;;;11.39;100.00
21644;BME280;10983;51.982;9.226;2023-05-02T02:35:28;99896.03;;;11.43;100.00
21644;BME280;10983;51.982;9.226;2023-05-02T02:38:03;99884.88;;;11.46;100.00
21644;BME280;10983;51.982;9.226;2023-05-02T02:40:40;99878.06;;;11.50;100.00
21644;BME280;10983;51.982;9.226;2023-05-02T02:43:19;99875.97;;;11.52;100.00
21644;BME280;10983;51.982;9.226;2023-05-02T02:46:06;99857.72;;;11.44;100.00
21644;BME280;10983;51.982;9.226;2023-05-02T02:48:52;99877.03;;;11.51;100.00
21644;BME280;10983;51.982;9.226;2023-05-02T02:51:24;99877.56;;;11.53;100.00
21644;BME280;10983;51.982;9.226;2023-05-02T02:53:56;99875.16;;;11.52;100.00
21644;BME280;10983;51.982;9.226;2023-05-02T02:56:45;99879.00;;;11.44;100.00
21644;BME280;10983;51.982;9.226;2023-05-02T02:59:25;99885.63;;;11.42;100.00
21644;BME280;10983;51.982;9.226;2023-05-02T03:02:02;99881.81;;;11.38;100.00
21644;BME280;10983;51.982;9.226;2023-05-02T03:04:35;99898.31;;;11.51;100.00
21644;BME280;10983;51.982;9.226;2023-05-02T03:07:07;99902.44;;;11.59;100.00
21644;BME280;10983;51.982;9.226;2023-05-02T03:09:41;99901.47;;;11.65;100.00
21644;BME280;10983;51.982;9.226;2023-05-02T03:12:11;99901.47;;;11.65;100.00
21644;BME280;10983;51.982;9.226;2023-05-02T03:14:41;99898.66;;;11.71;100.00
21644;BME280;10983;51.982;9.226;2023-05-02T03:17:10;99892.75;;;11.69;100.00
21644;BME280;10983;51.982;9.226;2023-05-02T03:19:39;99899.84;;;11.80;100.00
21644;BME280;10983;51.982;9.226;2023-05-02T03:22:09;99898.31;;;11.84;100.00
21644;BME280;10983;51.982;9.226;2023-05-02T03:24:36;99897.53;;;11.83;100.00
21644;BME280;10983;51.982;9.226;2023-05-02T03:27:06;99897.13;;;11.91;100.00
21644;BME280;10983;51.982;9.226;2023-05-02T03:29:35;99880.25;;;11.86;100.00
21644;BME280;10983;51.982;9.226;2023-05-02T03:32:04;99908.13;;;11.95;100.00
21644;BME280;10983;51.982;9.226;2023-05-02T03:34:35;99912.38;;;11.96;100.00
21644;BME280;10983;51.982;9.226;2023-05-02T03:37:02;99909.25;;;11.99;100.00
21644;BME280;10983;51.982;9.226;2023-05-02T03:39:32;99914.06;;;12.02;100.00
21644;BME280;10983;51.982;9.226;2023-05-02T03:41:59;99914.31;;;12.00;100.00
21644;BME280;10983;51.982;9.226;2023-05-02T03:44:29;99912.44;;;12.01;100.00
21644;BME280;10983;51.982;9.226;2023-05-02T03:46:58;99915.38;;;11.99;100.00
21644;BME280;10983;51.982;9.226;2023-05-02T03:49:26;99916.66;;;11.97;100.00
21644;BME280;10983;51.982;9.226;2023-05-02T03:51:55;99929.66;;;11.93;100.00
21644;BME280;10983;51.982;9.226;2023-05-02T03:54:22;99921.50;;;11.83;100.00
21644;BME280;10983;51.982;9.226;2023-05-02T03:56:52;99921.84;;;11.87;100.00
21644;BME280;10983;51.982;9.226;2023-05-02T03:59:21;99923.44;;;11.88;100.00
21644;BME280;10983;51.982;9.226;2023-05-02T04:01:49;99931.91;;;11.85;100.00
21644;BME280;10983;51.982;9.226;2023-05-02T04:04:16;99901.09;;;11.73;100.00
21644;BME280;10983;51.982;9.226;2023-05-02T04:06:44;99931.66;;;11.86;100.00
21644;BME280;10983;51.982;9.226;2023-05-02T04:09:13;99938.47;;;11.94;100.00
21644;BME280;10983;51.982;9.226;2023-05-02T04:11:41;99930.97;;;11.91;100.00
21644;BME280;10983;51.982;9.226;2023-05-02T04:14:08;99936.50;;;11.89;100.00
21644;BME280;10983;51.982;9.226;2023-05-02T04:16:36;99953.06;;;11.91;100.00
21644;BME280;10983;51.982;9.226;2023-05-02T04:19:03;99954.22;;;11.95;100.00
21644;BME280;10983;51.982;9.226;2023-05-02T04:21:30;99960.44;;;12.01;100.00
21644;BME280;10983;51.982;9.226;2023-05-02T04:23:59;99957.75;;;12.01;100.00
21644;BME280;10983;51.982;9.226;2023-05-02T04:26:28;99974.53;;;12.01;100.00
21644;BME280;10983;51.982;9.226;2023-05-02T04:28:55;99969.84;;;11.92;100.00
21644;BME280;10983;51.982;9.226;2023-05-02T04:31:25;99977.59;;;11.93;100.00
21644;BME280;10983;51.982;9.226;2023-05-02T04:33:53;99985.94;;;11.97;100.00
21644;BME280;10983;51.982;9.226;2023-05-02T04:36:27;99993.44;;;12.00;100.00
21644;BME280;10983;51.982;9.226;2023-05-02T04:38:55;100003.31;;;11.99;100.00
21644;BME280;10983;51.982;9.226;2023-05-02T04:41:24;100011.53;;;11.98;100.00
21644;BME280;10983;51.982;9.226;2023-05-02T04:43:54;100001.97;;;11.85;100.00
21644;BME280;10983;51.982;9.226;2023-05-02T04:46:22;100005.47;;;11.86;100.00
21644;BME280;10983;51.982;9.226;2023-05-02T04:48:49;100012.88;;;11.84;100.00
21644;BME280;10983;51.982;9.226;2023-05-02T04:51:18;100019.44;;;11.77;100.00
21644;BME280;10983;51.982;9.226;2023-05-02T04:53:55;100011.81;;;11.69;100.00
21644;BME280;10983;51.982;9.226;2023-05-02T04:56:22;100018.38;;;11.77;100.00
21644;BME280;10983;51.982;9.226;2023-05-02T04:58:50;100023.41;;;11.63;100.00
21644;BME280;10983;51.982;9.226;2023-05-02T05:01:19;100028.75;;;11.63;100.00
21644;BME280;10983;51.982;9.226;2023-05-02T05:03:47;100031.88;;;11.60;100.00
21644;BME280;10983;51.982;9.226;2023-05-02T05:06:14;100025.66;;;11.54;100.00
21644;BME280;10983;51.982;9.226;2023-05-02T05:08:44;100028.56;;;11.53;100.00
21644;BME280;10983;51.982;9.226;2023-05-02T05:11:11;100034.38;;;11.50;100.00
21644;BME280;10983;51.982;9.226;2023-05-02T05:13:39;100037.34;;;11.53;100.00
21644;BME280;10983;51.982;9.226;2023-05-02T05:16:08;100045.56;;;11.52;100.00
21644;BME280;10983;51.982;9.226;2023-05-02T05:18:37;100043.41;;;11.49;100.00
21644;BME280;10983;51.982;9.226;2023-05-02T05:21:06;100051.94;;;11.51;100.00
21644;BME280;10983;51.982;9.226;2023-05-02T05:23:34;100062.03;;;11.49;100.00
21644;BME280;10983;51.982;9.226;2023-05-02T05:26:08;100068.38;;;11.48;100.00
21644;BME280;10983;51.982;9.226;2023-05-02T05:28:37;100081.91;;;11.46;100.00
21644;BME280;10983;51.982;9.226;2023-05-02T05:31:05;100079.25;;;11.46;100.00
21644;BME280;10983;51.982;9.226;2023-05-02T05:33:33;100087.63;;;11.50;100.00
21644;BME280;10983;51.982;9.226;2023-05-02T05:36:06;100101.84;;;11.55;100.00
21644;BME280;10983;51.982;9.226;2023-05-02T05:38:34;100107.41;;;11.54;100.00
21644;BME280;10983;51.982;9.226;2023-05-02T05:41:03;100117.13;;;11.48;100.00
21644;BME280;10983;51.982;9.226;2023-05-02T05:43:32;100122.31;;;11.55;100.00
21644;BME280;10983;51.982;9.226;2023-05-02T05:46:03;100136.91;;;11.64;100.00
21644;BME280;10983;51.982;9.226;2023-05-02T05:48:30;100138.63;;;11.70;100.00
21644;BME280;10983;51.982;9.226;2023-05-02T05:51:02;100134.28;;;11.52;100.00
21644;BME280;10983;51.982;9.226;2023-05-02T05:53:31;100129.50;;;11.54;100.00
21644;BME280;10983;51.982;9.226;2023-05-02T05:56:07;100135.75;;;11.71;100.00
21644;BME280;10983;51.982;9.226;2023-05-02T05:58:35;100138.06;;;11.68;100.00
21644;BME280;10983;51.982;9.226;2023-05-02T06:01:02;100145.00;;;11.69;100.00
21644;BME280;10983;51.982;9.226;2023-05-02T06:03:31;100127.78;;;11.48;100.00
21644;BME280;10983;51.982;9.226;2023-05-02T06:05:59;100145.25;;;11.67;100.00
21644;BME280;10983;51.982;9.226;2023-05-02T06:08:26;100145.81;;;11.69;100.00
21644;BME280;10983;51.982;9.226;2023-05-02T06:10:55;100148.84;;;11.61;100.00
21644;BME280;10983;51.982;9.226;2023-05-02T06:13:22;100187.16;;;11.37;100.00
21644;BME280;10983;51.982;9.226;2023-05-02T06:15:50;100173.75;;;10.98;100.00
21644;BME280;10983;51.982;9.226;2023-05-02T06:18:20;100196.81;;;10.63;100.00
21644;BME280;10983;51.982;9.226;2023-05-02T06:20:48;100202.09;;;10.52;100.00
21644;BME280;10983;51.982;9.226;2023-05-02T06:23:15;100209.81;;;10.42;100.00
21644;BME280;10983;51.982;9.226;2023-05-02T06:25:43;100213.69;;;10.28;100.00
21644;BME280;10983;51.982;9.226;2023-05-02T06:28:11;100218.50;;;10.20;100.00
21644;BME280;10983;51.982;9.226;2023-05-02T06:30:39;100235.94;;;10.45;100.00
21644;BME280;10983;51.982;9.226;2023-05-02T06:33:06;100236.31;;;10.19;100.00
21644;BME280;10983;51.982;9.226;2023-05-02T06:35:34;100248.81;;;10.30;100.00
21644;BME280;10983;51.982;9.226;2023-05-02T06:38:01;100256.22;;;10.28;100.00
21644;BME280;10983;51.982;9.226;2023-05-02T06:40:33;100263.03;;;10.07;100.00
21644;BME280;10983;51.982;9.226;2023-05-02T06:43:01;100256.22;;;9.93;100.00
21644;BME280;10983;51.982;9.226;2023-05-02T06:45:30;100271.75;;;9.96;100.00
21644;BME280;10983;51.982;9.226;2023-05-02T06:48:03;100268.44;;;9.76;100.00
21644;BME280;10983;51.982;9.226;2023-05-02T06:50:31;100271.44;;;9.86;100.00
21644;BME280;10983;51.982;9.226;2023-05-02T06:52:59;100276.19;;;9.77;100.00
21644;BME280;10983;51.982;9.226;2023-05-02T06:55:26;100269.72;;;9.91;100.00
21644;BME280;10983;51.982;9.226;2023-05-02T06:57:54;100276.06;;;9.90;100.00
21644;BME280;10983;51.982;9.226;2023-05-02T07:00:21;100276.63;;;9.92;100.00
21644;BME280;10983;51.982;9.226;2023-05-02T07:02:50;100275.16;;;9.78;100.00
21644;BME280;10983;51.982;9.226;2023-05-02T07:05:18;100283.00;;;9.91;100.00
21644;BME280;10983;51.982;9.226;2023-05-02T07:07:45;100271.56;;;9.91;100.00
21644;BME280;10983;51.982;9.226;2023-05-02T07:10:13;100273.94;;;9.99;100.00
21644;BME280;10983;51.982;9.226;2023-05-02T07:12:41;100276.38;;;10.00;100.00
21644;BME280;10983;51.982;9.226;2023-05-02T07:15:10;100273.66;;;10.07;100.00
21644;BME280;10983;51.982;9.226;2023-05-02T07:17:39;100288.50;;;10.14;100.00
21644;BME280;10983;51.982;9.226;2023-05-02T07:20:09;100295.81;;;10.01;100.00
21644;BME280;10983;51.982;9.226;2023-05-02T07:22:37;100295.28;;;10.10;100.00
21644;BME280;10983;51.982;9.226;2023-05-02T07:25:05;100298.97;;;10.09;100.00
21644;BME280;10983;51.982;9.226;2023-05-02T07:27:32;100303.56;;;10.02;100.00
21644;BME280;10983;51.982;9.226;2023-05-02T07:30:00;100324.09;;;9.89;100.00
21644;BME280;10983;51.982;9.226;2023-05-02T07:32:29;100337.81;;;9.86;100.00
21644;BME280;10983;51.982;9.226;2023-05-02T07:34:57;100339.56;;;10.16;100.00
21644;BME280;10983;51.982;9.226;2023-05-02T07:37:26;100345.13;;;10.32;100.00
21644;BME280;10983;51.982;9.226;2023-05-02T07:39:59;100374.69;;;10.36;100.00
21644;BME280;10983;51.982;9.226;2023-05-02T07:42:28;100397.22;;;10.15;100.00
21644;BME280;10983;51.982;9.226;2023-05-02T07:44:57;100413.22;;;10.27;100.00
21644;BME280;10983;51.982;9.226;2023-05-02T07:47:25;100430.09;;;10.57;100.00
21644;BME280;10983;51.982;9.226;2023-05-02T07:49:54;100455.56;;;10.64;100.00
21644;BME280;10983;51.982;9.226;2023-05-02T07:52:21;100469.97;;;10.74;100.00
21644;BME280;10983;51.982;9.226;2023-05-02T07:54:50;100493.56;;;10.71;100.00
21644;BME280;10983;51.982;9.226;2023-05-02T07:57:18;100497.75;;;11.14;100.00
21644;BME280;10983;51.982;9.226;2023-05-02T07:59:45;100529.31;;;11.11;100.00
21644;BME280;10983;51.982;9.226;2023-05-02T08:02:13;100539.06;;;10.99;100.00
21644;BME280;10983;51.982;9.226;2023-05-02T08:04:42;100557.69;;;10.99;100.00
21644;BME280;10983;51.982;9.226;2023-05-02T08:07:10;100569.53;;;11.03;100.00
21644;BME280;10983;51.982;9.226;2023-05-02T08:09:37;100574.22;;;10.83;100.00
21644;BME280;10983;51.982;9.226;2023-05-02T08:12:06;100583.66;;;10.61;100.00
21644;BME280;10983;51.982;9.226;2023-05-02T08:14:34;100579.63;;;10.52;100.00
21644;BME280;10983;51.982;9.226;2023-05-02T08:17:01;100574.59;;;10.44;100.00
21644;BME280;10983;51.982;9.226;2023-05-02T08:19:28;100588.84;;;10.01;100.00
21644;BME280;10983;51.982;9.226;2023-05-02T08:21:57;100594.53;;;10.05;100.00
21644;BME280;10983;51.982;9.226;2023-05-02T08:24:25;100593.69;;;10.10;100.00
21644;BME280;10983;51.982;9.226;2023-05-02T08:26:53;100609.56;;;10.17;100.00
21644;BME280;10983;51.982;9.226;2023-05-02T08:29:21;100627.66;;;10.33;100.00
21644;BME280;10983;51.982;9.226;2023-05-02T08:31:49;100628.44;;;10.40;100.00
21644;BME280;10983;51.982;9.226;2023-05-02T08:34:17;100633.53;;;10.10;100.00
21644;BME280;10983;51.982;9.226;2023-05-02T08:36:45;100638.41;;;10.44;100.00
21644;BME280;10983;51.982;9.226;2023-05-02T08:39:13;100659.63;;;10.51;100.00
21644;BME280;10983;51.982;9.226;2023-05-02T08:41:42;100654.78;;;10.41;100.00
21644;BME280;10983;51.982;9.226;2023-05-02T08:44:10;100662.19;;;10.39;100.00
21644;BME280;10983;51.982;9.226;2023-05-02T08:46:41;100678.34;;;10.68;100.00
21644;BME280;10983;51.982;9.226;2023-05-02T08:49:09;100692.53;;;10.56;100.00
21644;BME280;10983;51.982;9.226;2023-05-02T08:51:37;100697.03;;;10.56;100.00
21644;BME280;10983;51.982;9.226;2023-05-02T08:54:08;100707.03;;;10.60;100.00
21644;BME280;10983;51.982;9.226;2023-05-02T08:56:36;100708.53;;;10.50;100.00
21644;BME280;10983;51.982;9.226;2023-05-02T08:59:05;100705.69;;;10.14;100.00
21644;BME280;10983;51.982;9.226;2023-05-02T09:01:34;100721.09;;;9.99;100.00
21644;BME280;10983;51.982;9.226;2023-05-02T09:04:03;100717.41;;;9.94;100.00
21644;BME280;10983;51.982;9.226;2023-05-02T09:06:31;100725.47;;;10.24;100.00
21644;BME280;10983;51.982;9.226;2023-05-02T09:08:59;100735.78;;;10.39;100.00
21644;BME280;10983;51.982;9.226;2023-05-02T09:11:27;100763.22;;;10.39;100.00
21644;BME280;10983;51.982;9.226;2023-05-02T09:13:55;100766.56;;;10.22;100.00
21644;BME280;10983;51.982;9.226;2023-05-02T09:16:25;100763.81;;;10.35;100.00
21644;BME280;10983;51.982;9.226;2023-05-02T09:18:54;100776.81;;;10.56;100.00
21644;BME280;10983;51.982;9.226;2023-05-02T09:21:24;100783.38;;;10.53;100.00
21644;BME280;10983;51.982;9.226;2023-05-02T09:23:53;100788.84;;;10.64;100.00
21644;BME280;10983;51.982;9.226;2023-05-02T09:26:23;100795.03;;;10.83;100.00
21644;BME280;10983;51.982;9.226;2023-05-02T09:28:54;100799.50;;;11.19;100.00
21644;BME280;10983;51.982;9.226;2023-05-02T09:31:25;100802.94;;;11.26;100.00
21644;BME280;10983;51.982;9.226;2023-05-02T09:34:15;100826.44;;;11.05;100.00
21644;BME280;10983;51.982;9.226;2023-05-02T09:36:46;100815.19;;;10.72;100.00
21644;BME280;10983;51.982;9.226;2023-05-02T09:39:16;100831.78;;;10.68;100.00
21644;BME280;10983;51.982;9.226;2023-05-02T09:41:45;100835.06;;;10.63;100.00
21644;BME280;10983;51.982;9.226;2023-05-02T09:44:14;100842.59;;;10.73;100.00
21644;BME280;10983;51.982;9.226;2023-05-02T09:46:45;100839.25;;;10.84;100.00
21644;BME280;10983;51.982;9.226;2023-05-02T09:49:13;100853.25;;;11.04;100.00
21644;BME280;10983;51.982;9.226;2023-05-02T09:51:45;100866.38;;;10.99;100.00
21644;BME280;10983;51.982;9.226;2023-05-02T09:54:14;100876.53;;;10.77;100.00
21644;BME280;10983;51.982;9.226;2023-05-02T09:57:02;100884.06;;;10.87;100.00
21644;BME280;10983;51.982;9.226;2023-05-02T09:59:30;100883.25;;;11.48;100.00
21644;BME280;10983;51.982;9.226;2023-05-02T10:01:58;100901.88;;;11.54;100.00
21644;BME280;10983;51.982;9.226;2023-05-02T10:04:27;100914.00;;;11.50;100.00
21644;BME280;10983;51.982;9.226;2023-05-02T10:06:57;100915.06;;;11.98;100.00
21644;BME280;10983;51.982;9.226;2023-05-02T10:09:26;100931.41;;;11.77;100.00
21644;BME280;10983;51.982;9.226;2023-05-02T10:12:00;100923.22;;;11.48;100.00
21644;BME280;10983;51.982;9.226;2023-05-02T10:14:30;100925.41;;;11.57;100.00
21644;BME280;10983;51.982;9.226;2023-05-02T10:17:04;100927.06;;;11.82;100.00
21644;BME280;10983;51.982;9.226;2023-05-02T10:19:38;100930.94;;;11.86;100.00
21644;BME280;10983;51.982;9.226;2023-05-02T10:22:09;100934.75;;;11.97;100.00
21644;BME280;10983;51.982;9.226;2023-05-02T10:24:38;100945.72;;;12.07;100.00
21644;BME280;10983;51.982;9.226;2023-05-02T10:27:07;100947.09;;;11.67;100.00
21644;BME280;10983;51.982;9.226;2023-05-02T10:29:34;100939.94;;;11.85;100.00
21644;BME280;10983;51.982;9.226;2023-05-02T10:32:04;100946.06;;;12.34;100.00
21644;BME280;10983;51.982;9.226;2023-05-02T10:34:33;100954.84;;;12.59;100.00
21644;BME280;10983;51.982;9.226;2023-05-02T10:37:01;100954.16;;;12.64;100.00
21644;BME280;10983;51.982;9.226;2023-05-02T10:39:30;100964.81;;;12.04;100.00
21644;BME280;10983;51.982;9.226;2023-05-02T10:42:00;100968.19;;;11.69;100.00
21644;BME280;10983;51.982;9.226;2023-05-02T10:44:31;100973.44;;;11.44;100.00
21644;BME280;10983;51.982;9.226;2023-05-02T10:46:59;100964.13;;;11.22;100.00
21644;BME280;10983;51.982;9.226;2023-05-02T10:49:27;100964.25;;;11.40;100.00
21644;BME280;10983;51.982;9.226;2023-05-02T10:51:55;100967.78;;;11.28;100.00
21644;BME280;10983;51.982;9.226;2023-05-02T10:54:23;100963.81;;;11.43;100.00
21644;BME280;10983;51.982;9.226;2023-05-02T10:57:06;100976.66;;;11.59;100.00
21644;BME280;10983;51.982;9.226;2023-05-02T10:59:35;100972.38;;;11.45;100.00
21644;BME280;10983;51.982;9.226;2023-05-02T11:02:03;100974.53;;;11.30;100.00
21644;BME280;10983;51.982;9.226;2023-05-02T11:04:59;100983.94;;;10.83;100.00
21644;BME280;10983;51.982;9.226;2023-05-02T11:07:29;100976.81;;;10.77;100.00
21644;BME280;10983;51.982;9.226;2023-05-02T11:10:24;100978.28;;;11.23;100.00
21644;BME280;10983;51.982;9.226;2023-05-02T11:12:54;100980.88;;;11.29;100.00
21644;BME280;10983;51.982;9.226;2023-05-02T11:15:53;101002.66;;;11.88;100.00
21644;BME280;10983;51.982;9.226;2023-05-02T11:18:21;101019.06;;;11.91;100.00
21644;BME280;10983;51.982;9.226;2023-05-02T11:20:49;101011.91;;;11.55;100.00
21644;BME280;10983;51.982;9.226;2023-05-02T11:23:21;101017.38;;;12.45;100.00
21644;BME280;10983;51.982;9.226;2023-05-02T11:25:53;101036.03;;;12.70;100.00
21644;BME280;10983;51.982;9.226;2023-05-02T11:28:43;101039.97;;;12.43;100.00
21644;BME280;10983;51.982;9.226;2023-05-02T11:34:21;101061.16;;;13.04;100.00
21644;BME280;10983;51.982;9.226;2023-05-02T11:36:48;101066.41;;;13.11;100.00
21644;BME280;10983;51.982;9.226;2023-05-02T11:39:19;101073.25;;;13.07;100.00
21644;BME280;10983;51.982;9.226;2023-05-02T11:41:49;101072.88;;;12.79;100.00
21644;BME280;10983;51.982;9.226;2023-05-02T11:44:18;101078.41;;;13.02;100.00
21644;BME280;10983;51.982;9.226;2023-05-02T11:46:45;101087.59;;;12.64;100.00
21644;BME280;10983;51.982;9.226;2023-05-02T11:49:13;101084.78;;;12.59;100.00
21644;BME280;10983;51.982;9.226;2023-05-02T11:51:41;101088.94;;;12.97;100.00
21644;BME280;10983;51.982;9.226;2023-05-02T11:54:17;101087.88;;;13.69;100.00
21644;BME280;10983;51.982;9.226;2023-05-02T11:56:44;101108.63;;;13.38;100.00
21644;BME280;10983;51.982;9.226;2023-05-02T11:59:13;101110.63;;;13.60;100.00
21644;BME280;10983;51.982;9.226;2023-05-02T12:01:47;101123.09;;;14.13;100.00
21644;BME280;10983;51.982;9.226;2023-05-02T12:04:15;101125.88;;;13.71;100.00
21644;BME280;10983;51.982;9.226;2023-05-02T12:06:56;101129.06;;;13.80;100.00
21644;BME280;10983;51.982;9.226;2023-05-02T12:09:24;101132.38;;;14.11;100.00
21644;BME280;10983;51.982;9.226;2023-05-02T12:11:52;101149.84;;;13.96;100.00
21644;BME280;10983;51.982;9.226;2023-05-02T12:14:27;101149.84;;;14.13;100.00
21644;BME280;10983;51.982;9.226;2023-05-02T12:16:57;101156.84;;;13.25;100.00
21644;BME280;10983;51.982;9.226;2023-05-02T12:19:25;101144.31;;;13.79;100.00
21644;BME280;10983;51.982;9.226;2023-05-02T12:21:53;101157.41;;;14.16;100.00
21644;BME280;10983;51.982;9.226;2023-05-02T12:24:21;101167.19;;;14.22;100.00
21644;BME280;10983;51.982;9.226;2023-05-02T12:26:48;101170.03;;;13.92;100.00
21644;BME280;10983;51.982;9.226;2023-05-02T12:29:18;101177.88;;;13.75;100.00
21644;BME280;10983;51.982;9.226;2023-05-02T12:31:51;101179.06;;;13.61;100.00
21644;BME280;10983;51.982;9.226;2023-05-02T12:34:32;101191.44;;;13.38;100.00
21644;BME280;10983;51.982;9.226;2023-05-02T12:37:00;101185.31;;;12.65;100.00
21644;BME280;10983;51.982;9.226;2023-05-02T12:39:34;101188.16;;;12.39;100.00
21644;BME280;10983;51.982;9.226;2023-05-02T12:42:09;101190.97;;;12.44;100.00
21644;BME280;10983;51.982;9.226;2023-05-02T12:44:37;101194.97;;;12.35;100.00
21644;BME280;10983;51.982;9.226;2023-05-02T12:47:06;101196.22;;;12.26;100.00
21644;BME280;10983;51.982;9.226;2023-05-02T12:49:48;101200.50;;;12.64;100.00
21644;BME280;10983;51.982;9.226;2023-05-02T12:52:17;101203.31;;;12.69;100.00
21644;BME280;10983;51.982;9.226;2023-05-02T12:54:44;101199.44;;;12.65;100.00
21644;BME280;10983;51.982;9.226;2023-05-02T12:57:22;101202.31;;;12.39;100.00
21644;BME280;10983;51.982;9.226;2023-05-02T12:59:50;101206.19;;;12.43;100.00
21644;BME280;10983;51.982;9.226;2023-05-02T13:02:19;101208.69;;;12.32;100.00